• Join FlightAware (Why Join?)
  • Login
  • US Flag 
01:02PM EDT


 

Airport Tracker/Info


-or-


 

Live Flight TrackerFlight Track Log ✈ UAL5822 ✈ 30-Sep-2013 ✈ KORD - CYOW

Flight Track Log - Related Links

Times and Time Zones

All times are in EDT time to prevent confusion due to time zone crossing. See the UAL5822 flight status page for this flight to view local times or setup timezone preferences in your user account.

Time Position Orientation Groundspeed Altitude Reporting Facility
EDT Latitude Longitude Course Direction KTS MPH feet Rate Location/Type
10:11PM 41.9833 -87.8500 77° East 198 228 2,000  Level Chicago TRACON
10:12PM 42.0167 -87.7667 62° Northeast 253 291 3,700 1,920 Climbing Chicago TRACON
10:13PM 42.0500 -87.7000 56° Northeast 283 326 5,700 2,340 Climbing Chicago TRACON
10:14PM 42.1272 -87.4802 66° East  Level Estimated
10:14PM 42.0822 -87.5986 67° East 279 321 8,200  Level Chicago Center
10:15PM 42.1754 -87.3377 66° East  Level Estimated
10:15PM 42.1178 -87.5006 64° Northeast 290 334 10,100  Level Chicago Center
10:16PM 42.2234 -87.1949 77° East  Level Estimated
10:16PM 42.1575 -87.3956 63° Northeast 314 361 11,200  Level Chicago Center
10:17PM 42.2017 -87.2744 64° Northeast 357 411 11,800 720 Climbing Chicago Center
10:18PM 42.2497 -87.1439 64° Northeast 387 445 12,700 1,140 Climbing Chicago Center
10:19PM 42.2814 -87.0069 73° East 393 452 14,200 1,320 Climbing Chicago Center
10:20PM 42.2875 -86.8617 87° East 389 448 15,500 1,200 Climbing Chicago Center
10:21PM 42.2942 -86.6836 87° East 395 455 16,700 960 Climbing Chicago Center
10:22PM 42.2989 -86.5594 87° East 399 459 17,500 960 Climbing Chicago Center
10:23PM 42.3056 -86.3911 87° East 396 456 18,700 1,620 Climbing Chicago Center
10:24PM 42.3108 -86.2447 87° East 393 452 20,900 2,040 Climbing Chicago Center
10:25PM 42.3147 -86.1150 88° East 356 410 23,000 1,260 Climbing Chicago Center
10:26PM 42.3133 -85.9825 91° East 354 407 23,600 540 Climbing Chicago Center
10:27PM 42.3122 -85.8383 91° East 382 440 24,200 480 Climbing Chicago Center
10:28PM 42.3106 -85.6878 91° East 396 456 24,700 540 Climbing Chicago Center
10:29PM 42.3072 -85.4975 91° East 419 482 25,400 720 Climbing Chicago Center
10:30PM 42.3053 -85.3356 91° East 430 495 26,200 780 Climbing Chicago Center
10:31PM 42.3028 -85.1750 91° East 430 495 27,100 960 Climbing Chicago Center
10:33PM 42.2994 -85.0131 92° East 434 499 28,200 960 Climbing Chicago Center
10:34PM 42.2964 -84.8531 91° East 429 494 29,100 1,020 Climbing Chicago Center
10:35PM 42.2922 -84.6947 92° East 427 491 30,300 1,200 Climbing Chicago Center
10:36PM 42.2875 -84.5350 92° East 427 491 31,600 1,260 Climbing Chicago Center
10:37PM 42.2994 -84.3814 84° East 412 474 32,900 1,320 Climbing Chicago Center
10:37PM 42.3275 -84.2508 74° East 408 470 34,000 1,140 Climbing Cleveland Center
10:38PM 42.3628 -84.1069 72° East 405 466 35,000 480 Climbing Cleveland Center
10:39PM 42.3992 -83.9578 72° East 415 478 35,000  Level Cleveland Center
10:40PM 42.4372 -83.7969 72° East 440 506 35,000  Level Cleveland Center
10:41PM 42.4783 -83.6300 71° East 460 529 35,000  Level Cleveland Center
10:42PM 42.5181 -83.4581 73° East 469 540 35,000  Level Cleveland Center
10:43PM 42.5575 -83.2886 72° East 468 539 35,000  Level Cleveland Center
10:45PM 42.5972 -83.1217 72° East 463 533 35,000  Level Cleveland Center
10:46PM 42.6350 -82.9550 73° East 462 532 35,000  Level Cleveland Center
10:47PM 42.6728 -82.7903 73° East 458 527 35,000  Level Cleveland Center
10:48PM 42.7206 -82.5919 72° East 460 529 35,000  Level Cleveland Center
10:49PM 42.7553 -82.4231 74° East 463 533 35,000  Level Cleveland Center
10:50PM 42.7950 -82.2531 72° East 470 541 35,000  Level Cleveland Center
10:51PM 42.8333 -82.0817 73° East 473 544 35,000  Level Cleveland Center
10:52PM 42.8719 -81.9128 73° East 469 540 35,000  Level Cleveland Center
10:53PM 42.9167 -81.6667 76° East 470 541 35,000  Level Toronto Center
10:54PM 42.9500 -81.5000 75° East 470 541 35,000  Level Toronto Center
10:55PM 42.9833 -81.3167 76° East 470 541 35,000  Level Toronto Center
10:56PM 43.0167 -81.1333 76° East 470 541 35,000  Level Toronto Center
10:57PM 43.0833 -80.9833 59° Northeast 460 529 35,000  Level Toronto Center
10:58PM 43.1333 -80.8500 63° Northeast 460 529 35,000  Level Toronto Center
10:59PM 43.2167 -80.6833 56° Northeast 460 529 35,000  Level Toronto Center
11:00PM 43.2833 -80.5333 59° Northeast 460 529 35,000  Level Toronto Center
11:01PM 43.3333 -80.3833 65° Northeast 460 529 35,000  Level Toronto Center
11:02PM 43.4000 -80.2333 59° Northeast 460 529 35,000  Level Toronto Center
11:03PM 43.4667 -80.0667 61° Northeast 460 529 35,000  Level Toronto Center
11:04PM 43.5167 -79.9333 63° Northeast 460 529 35,000  Level Toronto Center
11:05PM 43.5833 -79.7667 61° Northeast 450 518 35,000  Level Toronto Center
11:06PM 43.6500 -79.6167 58° Northeast 460 529 35,000  Level Toronto Center
11:07PM 43.7000 -79.4500 67° East 480 552 35,000  Level Toronto Center
11:08PM 43.7500 -79.2833 67° East 450 518 35,000  Level Toronto Center
11:09PM 43.7833 -79.1167 74° East 460 529 35,000  Level Toronto Center
11:10PM 43.8500 -78.9667 58° Northeast 460 529 35,000  Level Toronto Center
11:11PM 43.9167 -78.8000 61° Northeast 460 529 35,000  Level Toronto Center
11:12PM 43.9833 -78.6667 55° Northeast 460 529 35,000  Level Toronto Center
11:13PM 44.0500 -78.5000 61° Northeast 460 529 35,000  Level Toronto Center
11:14PM 44.0833 -78.3333 74° East 460 529 35,000  Level Toronto Center
11:15PM 44.1500 -78.2000 55° Northeast 460 529 35,000 -180 Level Toronto Center
11:16PM 44.2167 -78.0333 61° Northeast 460 529 34,700 -1,080 Descending Toronto Center
11:17PM 44.2833 -77.8833 58° Northeast 460 529 32,900 -1,980 Descending Toronto Center
11:18PM 44.3333 -77.7167 67° East 450 518 30,800 -1,980 Descending Toronto Center
11:19PM 44.4000 -77.5500 61° Northeast 450 518 29,000 -1,800 Descending Toronto Center
11:20PM 44.4667 -77.3833 61° Northeast 470 541 27,200 -1,740 Descending Toronto Center
11:21PM 44.5167 -77.3000 50° Northeast 490 564 26,000 -1,980 Descending Montreal Center
11:22PM 44.5833 -77.1167 63° Northeast 490 564 23,700 -2,100 Descending Montreal Center
11:23PM 44.6333 -76.9833 62° Northeast 470 541 21,800 -1,920 Descending Montreal Center
11:24PM 44.7000 -76.8333 58° Northeast 450 518 19,900 -2,040 Descending Montreal Center
11:25PM 44.7667 -76.7000 55° Northeast 430 495 17,800 -2,040 Descending Montreal Center
11:26PM 44.8333 -76.5667 55° Northeast 430 495 15,900 -1,800 Descending Montreal Center
11:27PM 44.9167 -76.4167 52° Northeast 430 495 14,300 -1,320 Descending Montreal Center
11:28PM 44.9667 -76.2833 62° Northeast 410 472 13,300 -840 Descending Montreal Center
11:29PM 45.0167 -76.1333 65° Northeast 400 460 12,700 -600 Descending Montreal Center
11:30PM 45.0667 -76.0167 59° Northeast 390 449 12,200 -480 Descending Montreal Center
11:31PM 45.1167 -75.8667 65° Northeast 390 449 11,800 -480 Descending Montreal Center
11:32PM 45.1667 -75.7500 59° Northeast 370 426 11,300 -540 Descending Montreal Center
11:33PM 45.2167 -75.6333 59° Northeast 340 391 10,800 -1,200 Descending Montreal Center
11:34PM 45.2667 -75.5333 55° Northeast 300 345 9,000 -2,340 Descending Montreal Center
11:35PM 45.3167 -75.4500 50° Northeast 270 311 6,200 -2,580 Descending Montreal Center
11:36PM 45.3667 -75.3667 49° Northeast 250 288 3,900 -2,100 Descending Montreal Center
11:37PM 45.3833 -75.4667 283° West 230 265 2,000 -960 Descending Montreal Center
11:38PM 45.3500 -75.5333 235° Southwest 190 219 2,000 -300 Level Montreal Center
11:39PM 45.3333 -75.5833 245° Southwest 130 150 1,500 -600 Descending Montreal Center
11:40PM 45.3167 -75.6167 235° Southwest 130 150 800 -600 Descending Montreal Center
11:41PM 45.3000 -75.6667 245° Southwest 130 150 400 -420 Descending Montreal Center